createdAt,value
2017-06-10T00:02:10.347Z,96.00
2017-06-10T00:04:37.869Z,96.40
2017-06-10T00:07:05.624Z,96.60
2017-06-10T00:09:33.142Z,96.80
2017-06-10T00:12:00.663Z,96.90
2017-06-10T00:14:28.403Z,97.20
2017-06-10T00:16:55.932Z,96.90
2017-06-10T00:19:23.472Z,97.00
2017-06-10T00:21:51.230Z,97.20
2017-06-10T00:24:18.744Z,97.20
2017-06-10T00:26:46.274Z,97.40
2017-06-10T00:29:14.158Z,97.60
2017-06-10T00:31:42.427Z,97.90
2017-06-10T00:34:10.718Z,98.00
2017-06-10T00:36:38.472Z,98.00
2017-06-10T00:39:06.001Z,97.90
2017-06-10T00:41:33.535Z,97.90
2017-06-10T00:44:01.291Z,97.90
2017-06-10T00:46:28.807Z,97.90
2017-06-10T00:48:57.083Z,97.90
2017-06-10T00:51:25.667Z,97.40
2017-06-10T00:53:53.181Z,97.40
2017-06-10T00:56:20.692Z,97.40
2017-06-10T00:58:49.196Z,97.30
2017-06-10T01:01:16.725Z,97.30
2017-06-10T01:03:44.248Z,97.20
2017-06-10T01:06:12.150Z,97.20
2017-06-10T01:08:39.673Z,97.10
2017-06-10T01:11:07.182Z,97.20
2017-06-10T01:13:34.959Z,97.00
2017-06-10T01:16:02.491Z,96.90
2017-06-10T01:18:30.713Z,96.80
2017-06-10T01:20:58.455Z,96.90
2017-06-10T01:23:25.972Z,96.80
2017-06-10T01:25:53.485Z,96.70
2017-06-10T01:28:21.258Z,96.60
2017-06-10T01:30:48.796Z,96.60
2017-06-10T01:33:16.307Z,96.50
2017-06-10T01:35:44.039Z,96.60
2017-06-10T01:38:11.577Z,96.60
2017-06-10T01:40:39.091Z,96.80
2017-06-10T01:43:06.835Z,96.90
2017-06-10T01:45:34.354Z,96.90
2017-06-10T01:48:01.877Z,96.90
2017-06-10T01:50:29.814Z,96.80
2017-06-10T01:52:58.456Z,96.80
2017-06-10T01:55:25.960Z,96.70
2017-06-10T01:57:53.867Z,97.20
2017-06-10T02:00:22.162Z,97.60
2017-06-10T02:02:49.689Z,97.60
2017-06-10T02:05:17.442Z,97.50
2017-06-10T02:07:44.964Z,97.50
2017-06-10T02:10:12.475Z,97.50
2017-06-10T02:12:40.203Z,97.40
2017-06-10T02:15:07.727Z,97.10
2017-06-10T02:17:36.031Z,97.00
2017-06-10T02:20:03.769Z,97.00
2017-06-10T02:22:31.281Z,97.00
2017-06-10T02:24:58.789Z,97.10
2017-06-10T02:27:26.540Z,97.20
2017-06-10T02:29:54.059Z,97.20
2017-06-10T02:32:21.570Z,97.10
2017-06-10T02:34:49.311Z,97.00
2017-06-10T02:37:16.837Z,97.10
2017-06-10T02:39:44.360Z,97.10
2017-06-10T02:42:12.108Z,97.10
2017-06-10T02:44:39.616Z,97.10
2017-06-10T02:47:07.121Z,97.10
2017-06-10T02:49:34.952Z,97.20
2017-06-10T02:52:02.482Z,97.20
2017-06-10T02:54:30.000Z,97.60
2017-06-10T02:56:57.744Z,97.20
2017-06-10T02:59:26.029Z,97.40
2017-06-10T03:01:54.315Z,97.50
2017-06-10T03:04:22.059Z,97.50
2017-06-10T03:06:49.563Z,97.90
2017-06-10T03:09:17.080Z,97.90
2017-06-10T03:11:44.818Z,97.90
2017-06-10T03:14:12.346Z,97.90
2017-06-10T03:16:51.807Z,97.90
2017-06-10T03:19:19.320Z,97.90
2017-06-10T03:21:46.828Z,97.70
2017-06-10T03:24:14.566Z,97.40
2017-06-10T03:26:42.089Z,96.80
2017-06-10T03:29:09.623Z,96.20
2017-06-10T03:31:38.139Z,96.10
2017-06-10T03:34:05.675Z,96.30
2017-06-10T03:36:33.188Z,96.70
2017-06-10T03:39:00.945Z,97.00
2017-06-10T03:41:28.459Z,97.20
2017-06-10T03:43:55.970Z,97.30
2017-06-10T03:46:23.719Z,97.30
2017-06-10T03:48:51.232Z,97.10
2017-06-10T03:51:18.731Z,97.00
2017-06-10T03:53:46.471Z,96.80
2017-06-10T03:56:13.986Z,97.10
2017-06-10T03:58:41.490Z,97.20
2017-06-10T04:01:09.244Z,97.10
2017-06-10T04:03:39.787Z,96.90
2017-06-10T04:06:07.303Z,97.20
2017-06-10T04:08:35.045Z,96.80
2017-06-10T04:11:02.567Z,96.90
2017-06-10T04:13:30.076Z,96.80
2017-06-10T04:15:57.857Z,96.60
2017-06-10T04:18:25.372Z,96.50
2017-06-10T04:20:52.896Z,96.40
2017-06-10T04:23:20.635Z,96.60
2017-06-10T04:25:48.172Z,96.20
2017-06-10T04:28:15.684Z,96.20
2017-06-10T04:30:43.468Z,95.20
2017-06-10T04:33:10.973Z,94.60
2017-06-10T04:35:38.490Z,94.40
2017-06-10T04:38:07.082Z,94.40
2017-06-10T04:40:34.607Z,94.40
2017-06-10T04:43:02.684Z,94.20
2017-06-10T04:45:30.441Z,93.90
2017-06-10T04:47:58.604Z,93.80
2017-06-10T04:50:26.125Z,93.50
2017-06-10T04:52:53.859Z,93.20
2017-06-10T04:55:21.364Z,93.20
2017-06-10T04:57:48.886Z,93.00
2017-06-10T05:00:16.638Z,93.10
2017-06-10T05:02:44.149Z,93.20
2017-06-10T05:05:11.665Z,92.00
2017-06-10T05:07:39.428Z,91.30
2017-06-10T05:10:06.947Z,91.20
2017-06-10T05:12:34.463Z,90.20
2017-06-10T05:15:02.211Z,90.20
2017-06-10T05:17:29.733Z,87.90
2017-06-10T05:19:57.246Z,86.80
2017-06-10T05:22:25.050Z,86.60
2017-06-10T05:24:52.582Z,87.40
2017-06-10T05:27:20.104Z,85.00
2017-06-10T05:29:47.856Z,85.20
2017-06-10T05:32:15.379Z,81.70
2017-06-10T05:34:42.904Z,79.90
2017-06-10T05:37:10.651Z,79.00
2017-06-10T05:39:38.180Z,77.00
2017-06-10T05:42:05.716Z,77.20
2017-06-10T05:44:33.481Z,74.90
2017-06-10T05:47:01.767Z,71.70
2017-06-10T05:49:30.056Z,71.00
2017-06-10T05:51:57.809Z,71.00
2017-06-10T05:54:25.322Z,69.40
2017-06-10T05:56:52.867Z,69.10
2017-06-10T05:59:20.692Z,68.30
2017-06-10T06:01:48.218Z,68.80
2017-06-10T06:04:15.763Z,70.00
2017-06-10T06:06:43.516Z,70.90
2017-06-10T06:09:11.035Z,70.30
2017-06-10T06:11:38.545Z,69.50
2017-06-10T06:14:06.284Z,70.80
2017-06-10T06:16:33.814Z,68.00
2017-06-10T06:19:01.323Z,67.50
2017-06-10T06:21:29.087Z,67.50
2017-06-10T06:23:56.608Z,66.30
2017-06-10T06:26:24.154Z,66.30
2017-06-10T06:28:51.905Z,65.80
2017-06-10T06:31:19.430Z,64.90
2017-06-10T06:33:46.952Z,63.30
2017-06-10T06:36:14.727Z,62.10
2017-06-10T06:38:42.257Z,59.40
2017-06-10T06:41:09.777Z,58.80
2017-06-10T06:43:37.530Z,58.50
2017-06-10T06:46:05.043Z,58.50
2017-06-10T06:48:32.564Z,58.00
2017-06-10T06:51:00.307Z,55.70
2017-06-10T06:53:27.819Z,54.10
2017-06-10T06:55:55.355Z,54.00
2017-06-10T06:58:23.100Z,54.20
2017-06-10T07:00:50.621Z,53.40
2017-06-10T07:03:18.139Z,54.90
2017-06-10T07:05:46.116Z,55.00
2017-06-10T07:08:14.408Z,53.20
2017-06-10T07:10:41.938Z,53.10
2017-06-10T07:13:09.684Z,54.00
2017-06-10T07:15:37.199Z,53.80
2017-06-10T07:18:04.909Z,53.20
2017-06-10T07:20:32.658Z,52.60
2017-06-10T07:23:00.164Z,53.50
2017-06-10T07:25:27.709Z,53.40
2017-06-10T07:27:55.476Z,52.50
2017-06-10T07:30:23.756Z,52.70
2017-06-10T07:32:52.056Z,51.10
2017-06-10T07:35:19.815Z,51.10
2017-06-10T07:37:47.358Z,49.20
2017-06-10T07:40:14.893Z,48.10
2017-06-10T07:42:42.671Z,48.90
2017-06-10T07:45:10.961Z,47.40
2017-06-10T07:47:38.494Z,47.30
2017-06-10T07:50:06.231Z,47.50
2017-06-10T07:52:33.757Z,47.30
2017-06-10T07:55:01.273Z,47.00
2017-06-10T07:57:29.187Z,47.30
2017-06-10T07:59:56.725Z,48.90
2017-06-10T08:02:25.013Z,48.70
2017-06-10T08:04:52.766Z,48.60
2017-06-10T08:07:20.288Z,48.00
2017-06-10T08:09:47.815Z,48.90
2017-06-10T08:12:15.640Z,48.90
2017-06-10T08:14:43.925Z,50.10
2017-06-10T08:17:11.449Z,50.00
2017-06-10T08:19:39.242Z,51.00
2017-06-10T08:22:07.547Z,50.10
2017-06-10T08:24:35.097Z,50.00
2017-06-10T08:27:03.049Z,49.30
2017-06-10T08:29:31.323Z,49.60
2017-06-10T08:31:59.614Z,49.30
2017-06-10T08:34:27.359Z,49.30
2017-06-10T08:36:54.883Z,50.00
2017-06-10T08:39:22.409Z,49.40
2017-06-10T08:41:50.168Z,49.70
2017-06-10T08:44:17.703Z,50.30
2017-06-10T08:46:45.973Z,52.00
2017-06-10T08:49:14.523Z,51.50
2017-06-10T08:51:42.072Z,51.50
2017-06-10T08:54:09.592Z,52.20
2017-06-10T08:56:37.455Z,53.50
2017-06-10T08:59:05.001Z,53.30
2017-06-10T09:01:32.543Z,53.30
2017-06-10T09:04:00.433Z,50.60
2017-06-10T09:06:28.008Z,51.10
2017-06-10T09:08:55.532Z,53.80
2017-06-10T09:11:23.443Z,51.40
2017-06-10T09:13:51.857Z,51.10
2017-06-10T09:16:19.399Z,51.30
2017-06-10T09:18:47.195Z,50.30
2017-06-10T09:21:14.724Z,49.30
2017-06-10T09:23:42.243Z,52.10
2017-06-10T09:26:10.198Z,50.90
2017-06-10T09:28:38.500Z,51.20
2017-06-10T09:31:06.035Z,51.20
2017-06-10T09:33:33.794Z,51.70
2017-06-10T09:36:02.086Z,53.60
2017-06-10T09:38:29.635Z,52.80
2017-06-10T09:40:57.608Z,50.90
2017-06-10T09:43:25.246Z,50.40
2017-06-10T09:45:52.775Z,51.00
2017-06-10T09:48:20.574Z,51.20
2017-06-10T09:50:48.101Z,50.40
2017-06-10T09:53:15.670Z,49.90
2017-06-10T09:55:43.506Z,49.60
2017-06-10T09:58:11.064Z,53.30
2017-06-10T10:00:38.608Z,51.90
2017-06-10T10:03:06.385Z,52.70
2017-06-10T10:05:33.911Z,54.00
2017-06-10T10:08:01.445Z,55.30
2017-06-10T10:10:29.233Z,49.80
2017-06-10T10:12:56.759Z,49.50
2017-06-10T10:15:24.299Z,50.20
2017-06-10T10:17:52.065Z,49.00
2017-06-10T10:20:19.597Z,49.60
2017-06-10T10:22:47.121Z,48.90
2017-06-10T10:25:14.877Z,50.10
2017-06-10T10:27:42.410Z,48.10
2017-06-10T10:30:09.948Z,47.50
2017-06-10T10:32:37.700Z,47.20
2017-06-10T10:35:05.222Z,45.90
2017-06-10T10:37:32.759Z,48.10
2017-06-10T10:40:00.520Z,48.50
2017-06-10T10:42:28.067Z,48.40
2017-06-10T10:44:55.598Z,49.20
2017-06-10T10:47:23.359Z,52.60
2017-06-10T10:49:51.705Z,52.30
2017-06-10T10:52:19.240Z,49.10
2017-06-10T10:54:46.993Z,47.20
2017-06-10T10:57:14.530Z,47.30
2017-06-10T10:59:42.077Z,47.60
2017-06-10T11:02:10.026Z,47.20
2017-06-10T11:04:38.323Z,52.30
2017-06-10T11:07:05.847Z,52.40
2017-06-10T11:09:33.633Z,48.10
2017-06-10T11:12:01.160Z,46.50
2017-06-10T11:14:28.696Z,47.00
2017-06-10T11:16:56.609Z,46.70
2017-06-10T11:19:24.912Z,45.40
2017-06-10T11:21:52.452Z,45.30
2017-06-10T11:24:20.422Z,47.40
2017-06-10T11:26:48.726Z,49.00
2017-06-10T11:29:16.252Z,48.90
2017-06-10T11:31:44.207Z,46.30
2017-06-10T11:34:12.513Z,47.40
2017-06-10T11:36:40.038Z,47.10
2017-06-10T11:39:07.786Z,50.30
2017-06-10T11:41:35.325Z,46.50
2017-06-10T11:44:02.861Z,47.20
2017-06-10T11:46:30.685Z,45.10
2017-06-10T11:48:58.217Z,45.20
2017-06-10T11:51:25.764Z,44.50
2017-06-10T11:53:53.542Z,45.90
2017-06-10T11:56:21.071Z,47.40
2017-06-10T11:58:48.610Z,50.70
2017-06-10T12:01:16.405Z,45.40
2017-06-10T12:03:43.932Z,44.90
2017-06-10T12:06:11.473Z,43.60
2017-06-10T12:08:40.162Z,45.20
2017-06-10T12:11:07.686Z,45.70
2017-06-10T12:13:35.246Z,41.90
2017-06-10T12:16:03.141Z,42.70
2017-06-10T12:18:31.442Z,46.30
2017-06-10T12:20:58.973Z,45.60
2017-06-10T12:23:26.782Z,46.90
2017-06-10T12:25:54.304Z,46.00
2017-06-10T12:28:21.820Z,44.60
2017-06-10T12:30:49.642Z,42.00
2017-06-10T12:33:17.174Z,41.70
2017-06-10T12:35:44.692Z,43.40
2017-06-10T12:38:12.510Z,45.90
2017-06-10T12:40:40.808Z,42.40
2017-06-10T12:43:08.345Z,42.30
2017-06-10T12:45:36.345Z,42.70
2017-06-10T12:48:04.027Z,42.60
2017-06-10T12:50:31.569Z,42.00
2017-06-10T12:53:00.244Z,43.50
2017-06-10T12:55:27.791Z,38.90
2017-06-10T12:57:56.080Z,36.50
2017-06-10T13:00:23.636Z,36.50
2017-06-10T13:02:51.441Z,38.00
2017-06-10T13:05:18.972Z,37.60
2017-06-10T13:07:46.492Z,37.50
2017-06-10T13:10:14.287Z,37.60
2017-06-10T13:12:41.823Z,36.10
2017-06-10T13:15:09.348Z,37.30
2017-06-10T13:17:37.364Z,38.80
2017-06-10T13:20:04.905Z,35.90
2017-06-10T13:22:32.411Z,37.50
2017-06-10T13:25:00.325Z,37.00
2017-06-10T13:27:27.849Z,34.40
2017-06-10T13:29:55.414Z,34.80
2017-06-10T13:32:23.250Z,33.40
2017-06-10T13:34:51.134Z,33.60
2017-06-10T13:37:18.684Z,33.10
2017-06-10T13:39:46.644Z,34.60
2017-06-10T13:42:14.163Z,32.10
2017-06-10T13:44:41.694Z,31.20
2017-06-10T13:47:09.696Z,30.60
2017-06-10T13:49:37.993Z,33.80
2017-06-10T13:52:05.531Z,33.80
2017-06-10T13:54:33.515Z,34.30
2017-06-10T13:57:01.891Z,31.80
2017-06-10T13:59:29.471Z,31.70
2017-06-10T14:01:57.302Z,32.80
2017-06-10T14:04:25.606Z,28.30
2017-06-10T14:06:53.172Z,28.20
2017-06-10T14:09:21.110Z,28.10
2017-06-10T14:11:49.402Z,28.10
2017-06-10T14:14:16.943Z,28.00
2017-06-10T14:16:44.906Z,27.60
2017-06-10T14:19:12.432Z,26.40
2017-06-10T14:21:39.946Z,26.60
2017-06-10T14:24:07.907Z,28.40
2017-06-10T14:26:35.453Z,29.40
2017-06-10T14:29:02.990Z,28.10
2017-06-10T14:31:30.827Z,29.60
2017-06-10T14:33:58.381Z,29.20
2017-06-10T14:36:25.913Z,28.60
2017-06-10T14:38:53.738Z,28.30
2017-06-10T14:41:21.270Z,27.60
2017-06-10T14:43:48.795Z,28.50
2017-06-10T14:46:17.479Z,29.10
2017-06-10T14:48:45.787Z,30.00
2017-06-10T14:51:13.323Z,30.00
2017-06-10T14:53:41.175Z,29.10
2017-06-10T14:56:08.712Z,30.10
2017-06-10T14:58:36.252Z,31.10
2017-06-10T15:01:04.194Z,29.90
2017-06-10T15:03:31.727Z,29.60
2017-06-10T15:05:59.263Z,28.20
2017-06-10T15:08:27.064Z,29.10
2017-06-10T15:10:54.588Z,26.60
2017-06-10T15:13:22.112Z,26.20
2017-06-10T15:15:49.947Z,25.90
2017-06-10T15:18:17.474Z,26.80
2017-06-10T15:20:45.778Z,29.90
2017-06-10T15:23:13.616Z,29.90
2017-06-10T15:25:41.914Z,29.70
2017-06-10T15:28:09.446Z,29.70
2017-06-10T15:30:37.233Z,30.50
2017-06-10T15:33:04.783Z,30.50
2017-06-10T15:35:32.304Z,30.00
2017-06-10T15:38:00.015Z,30.00
2017-06-10T15:40:27.542Z,28.60
2017-06-10T15:42:55.062Z,27.40
2017-06-10T15:45:22.870Z,26.80
2017-06-10T15:47:50.402Z,26.30
2017-06-10T15:50:17.948Z,26.00
2017-06-10T15:52:45.765Z,28.10
2017-06-10T15:55:14.047Z,28.50
2017-06-10T15:57:46.255Z,28.90
2017-06-10T16:00:14.282Z,28.90
2017-06-10T16:02:42.567Z,30.90
2017-06-10T16:05:10.871Z,29.50
2017-06-10T16:07:38.711Z,29.50
2017-06-10T16:10:06.229Z,30.20
2017-06-10T16:12:33.764Z,28.90
2017-06-10T16:15:01.576Z,28.10
2017-06-10T16:17:29.130Z,27.10
2017-06-10T16:19:56.673Z,28.70
2017-06-10T16:22:24.513Z,28.10
2017-06-10T16:24:57.754Z,29.30
2017-06-10T16:27:25.574Z,29.60
2017-06-10T16:29:53.891Z,29.20
2017-06-10T16:32:21.463Z,29.80
2017-06-10T16:34:50.033Z,29.90
2017-06-10T16:37:17.602Z,29.90
2017-06-10T16:39:46.809Z,29.90
2017-06-10T16:42:16.655Z,29.90
2017-06-10T16:44:44.217Z,29.10
2017-06-10T16:47:11.749Z,29.40
2017-06-10T16:49:41.669Z,29.80
2017-06-10T16:52:09.184Z,30.00
2017-06-10T16:54:36.712Z,31.30
2017-06-10T16:57:04.629Z,30.20
2017-06-10T16:59:32.545Z,29.70
2017-06-10T17:02:00.092Z,30.20
2017-06-10T17:04:28.328Z,29.40
2017-06-10T17:06:56.319Z,28.50
2017-06-10T17:09:23.850Z,28.70
2017-06-10T17:11:51.364Z,27.50
2017-06-10T17:14:19.285Z,28.20
2017-06-10T17:16:47.616Z,28.50
2017-06-10T17:19:15.191Z,28.50
2017-06-10T17:21:43.098Z,29.80
2017-06-10T17:24:12.660Z,30.00
2017-06-10T17:26:40.208Z,30.00
2017-06-10T17:29:08.133Z,29.90
2017-06-10T17:31:36.828Z,31.80
2017-06-10T17:34:04.405Z,31.80
2017-06-10T17:36:31.950Z,33.40
2017-06-10T17:38:59.804Z,35.00
2017-06-10T17:41:28.120Z,38.90
2017-06-10T17:43:55.638Z,38.90
2017-06-10T17:46:23.626Z,39.80
2017-06-10T17:48:51.155Z,39.10
2017-06-10T17:51:18.689Z,40.80
2017-06-10T17:53:46.588Z,42.10
2017-06-10T17:56:14.150Z,43.00
2017-06-10T17:58:41.684Z,43.80
2017-06-10T18:01:09.517Z,43.40
2017-06-10T18:03:37.059Z,44.60
2017-06-10T18:06:04.610Z,43.50
2017-06-10T18:08:32.440Z,45.30
2017-06-10T18:10:59.966Z,45.40
2017-06-10T18:13:27.496Z,45.50
2017-06-10T18:15:55.331Z,46.30
2017-06-10T18:18:23.621Z,47.30
2017-06-10T18:20:51.916Z,46.20
2017-06-10T18:23:19.750Z,46.20
2017-06-10T18:25:53.057Z,48.20
2017-06-10T18:28:21.020Z,45.90
2017-06-10T18:30:54.241Z,44.00
2017-06-10T18:33:22.096Z,46.20
2017-06-10T18:35:49.614Z,45.90
2017-06-10T18:38:17.200Z,44.90
2017-06-10T18:40:45.087Z,46.50
2017-06-10T18:43:12.649Z,46.00
2017-06-10T18:45:40.207Z,47.00
2017-06-10T18:48:08.077Z,46.10
2017-06-10T18:50:35.630Z,46.50
2017-06-10T18:53:03.155Z,48.80
2017-06-10T18:55:31.049Z,49.40
2017-06-10T18:57:58.594Z,49.60
2017-06-10T19:00:26.129Z,49.00
2017-06-10T19:02:54.040Z,49.60
2017-06-10T19:05:21.577Z,49.60
2017-06-10T19:07:49.105Z,50.90
2017-06-10T19:10:17.023Z,51.50
2017-06-10T19:12:45.573Z,51.80
2017-06-10T19:15:13.134Z,51.20
2017-06-10T19:17:41.015Z,52.70
2017-06-10T19:20:09.312Z,52.70
2017-06-10T19:22:36.842Z,52.70
2017-06-10T19:25:04.664Z,54.10
2017-06-10T19:27:32.395Z,54.70
2017-06-10T19:30:00.359Z,54.60
2017-06-10T19:32:27.902Z,55.60
2017-06-10T19:34:55.426Z,56.90
2017-06-10T19:37:23.326Z,56.90
2017-06-10T19:39:50.851Z,57.80
2017-06-10T19:42:18.389Z,58.40
2017-06-10T19:44:46.343Z,58.30
2017-06-10T19:47:13.905Z,58.20
2017-06-10T19:49:41.458Z,58.90
2017-06-10T19:52:09.325Z,59.40
2017-06-10T19:54:37.119Z,59.80
2017-06-10T19:57:04.683Z,60.60
2017-06-10T19:59:32.736Z,60.70
2017-06-10T20:02:00.270Z,61.10
2017-06-10T20:04:27.808Z,60.70
2017-06-10T20:06:56.496Z,64.80
2017-06-10T20:09:24.808Z,65.00
2017-06-10T20:11:52.375Z,65.00
2017-06-10T20:14:20.319Z,64.90
2017-06-10T20:16:47.881Z,67.50
2017-06-10T20:19:15.408Z,69.90
2017-06-10T20:21:43.284Z,72.90
2017-06-10T20:24:11.563Z,77.00
2017-06-10T20:26:39.091Z,77.00
2017-06-10T20:29:07.104Z,78.40
2017-06-10T20:31:34.639Z,79.20
2017-06-10T20:34:02.185Z,79.50
2017-06-10T20:36:30.087Z,79.80
2017-06-10T20:38:57.619Z,79.80
2017-06-10T20:41:25.223Z,80.90
2017-06-10T20:43:53.053Z,81.30
2017-06-10T20:46:21.355Z,81.20
2017-06-10T20:48:48.884Z,81.70
2017-06-10T20:51:17.619Z,82.00
2017-06-10T20:53:48.699Z,82.20
2017-06-10T20:56:16.274Z,83.00
2017-06-10T20:58:44.163Z,84.10
2017-06-10T21:01:11.696Z,84.70
2017-06-10T21:03:39.238Z,85.70
2017-06-10T21:06:07.382Z,85.50
2017-06-10T21:08:34.957Z,86.00
2017-06-10T21:11:02.491Z,86.90
2017-06-10T21:13:30.339Z,87.50
2017-06-10T21:15:57.878Z,87.50
2017-06-10T21:18:25.421Z,88.00
2017-06-10T21:20:53.305Z,87.90
2017-06-10T21:23:21.620Z,86.10
2017-06-10T21:25:49.162Z,86.10
2017-06-10T21:28:17.002Z,86.20
2017-06-10T21:30:44.537Z,86.90
2017-06-10T21:33:12.085Z,87.10
2017-06-10T21:35:39.887Z,87.90
2017-06-10T21:38:08.186Z,89.70
2017-06-10T21:40:35.738Z,89.50
2017-06-10T21:43:03.678Z,89.00
2017-06-10T21:45:31.229Z,88.90
2017-06-10T21:47:58.751Z,88.70
2017-06-10T21:50:26.675Z,88.60
2017-06-10T21:52:55.038Z,89.50
2017-06-10T21:55:22.570Z,90.10
2017-06-10T21:57:50.483Z,90.40
2017-06-10T22:00:18.757Z,90.80
2017-06-10T22:02:46.279Z,90.90
2017-06-10T22:05:14.292Z,91.00
2017-06-10T22:07:42.600Z,91.30
2017-06-10T22:10:10.134Z,91.30
2017-06-10T22:12:37.700Z,91.00
2017-06-10T22:15:05.244Z,91.10
2017-06-10T22:17:32.764Z,91.20
2017-06-10T22:20:00.334Z,91.00
2017-06-10T22:22:27.867Z,90.90
2017-06-10T22:24:55.393Z,91.20
2017-06-10T22:27:23.256Z,91.20
2017-06-10T22:29:50.782Z,91.10
2017-06-10T22:32:18.303Z,91.50
2017-06-10T22:34:45.841Z,91.60
2017-06-10T22:37:13.372Z,91.60
2017-06-10T22:39:40.914Z,91.60
2017-06-10T22:42:08.447Z,91.70
2017-06-10T22:44:35.982Z,91.80
2017-06-10T22:47:03.506Z,91.50
2017-06-10T22:49:31.064Z,91.60
2017-06-10T22:51:58.602Z,91.80
2017-06-10T22:54:26.126Z,91.70
2017-06-10T22:56:53.668Z,91.80
2017-06-10T22:59:21.187Z,92.00
2017-06-10T23:01:48.716Z,92.10
2017-06-10T23:04:16.534Z,92.20
2017-06-10T23:06:44.842Z,92.40
2017-06-10T23:09:12.373Z,92.30
2017-06-10T23:11:39.917Z,92.40
2017-06-10T23:14:07.463Z,92.50
2017-06-10T23:16:34.985Z,92.80
2017-06-10T23:19:02.904Z,92.90
2017-06-10T23:21:30.421Z,92.90
2017-06-10T23:23:57.940Z,92.90
2017-06-10T23:26:25.487Z,92.80
2017-06-10T23:28:53.010Z,92.70
2017-06-10T23:31:20.572Z,92.90
2017-06-10T23:33:48.136Z,93.20
2017-06-10T23:36:15.659Z,93.30
2017-06-10T23:38:43.181Z,93.20
2017-06-10T23:41:11.524Z,93.30
2017-06-10T23:43:39.089Z,93.30
2017-06-10T23:46:06.633Z,93.40
2017-06-10T23:48:34.195Z,93.80
2017-06-10T23:51:01.718Z,94.00
2017-06-10T23:53:29.259Z,94.30
2017-06-10T23:55:56.802Z,94.00
2017-06-10T23:58:24.329Z,94.00
